Goodville, Texas
Current Conditions -  °F | °C
As of 12:15 AM on Monday 26 Jan 2015 (Local Time) from KTPL Reporting Station
Clear Clear  
Wind Chill:   Ceiling: Unl
Heat Index:   Visibility: 10mi
Dew Point: -2°   Wind: 6mph
Humidity: 53%   Direction: 300°WNW
Pressure: 30.2"   Gusts: NA
Location:  31.1912°N, 97.0719°W
Report Text: KTPL 260615Z AUTO 30005KT 10SM CLR 07/M02 A3020 RMK AO1
Loading
Personal Weather Stations






























Interactive Weather Map New forecast layout! Learn more

10-Day Weather Forecast

Advertisements
Track Severe Weather on mobile